Time;durP1;ratioP1;P1;durP2;ratioP2;P2;SDS_P1;SDS_P2;PMS_P1;PMS_P2;Temp;Humidity;BMP_temperature;BMP_pressure;BME280_temperature;BME280_humidity;BME280_pressure;Samples;Min_cycle;Max_cycle;Signal;HPM_P1;HPM_P2
2023/08/14 00:02:11;;;;;;;7.20;5.50;;;;;;;19.74;62.76;100253.42;109052;1253;69193;-81
2023/08/14 00:04:38;;;;;;;9.30;5.00;;;;;;;19.75;62.87;100257.36;108269;1251;70438;-82
2023/08/14 00:07:06;;;;;;;10.90;5.80;;;;;;;19.76;62.81;100262.54;109085;1253;59048;-84
2023/08/14 00:09:34;;;;;;;9.90;5.60;;;;;;;19.77;62.85;100261.08;108113;1252;60341;-84
2023/08/14 00:12:01;;;;;;;7.60;5.40;;;;;;;19.77;62.98;100264.59;107912;1258;74382;-81
2023/08/14 00:14:29;;;;;;;11.00;5.70;;;;;;;19.76;62.91;100263.81;107280;1252;70298;-84
2023/08/14 00:16:56;;;;;;;10.70;6.10;;;;;;;19.76;62.75;100261.38;106754;1256;71301;-84
2023/08/14 00:19:24;;;;;;;10.00;6.20;;;;;;;19.75;62.57;100259.14;107131;1255;60270;-82
2023/08/14 00:21:51;;;;;;;9.10;6.30;;;;;;;19.74;62.52;100259.61;107824;1252;60402;-85
2023/08/14 00:24:19;;;;;;;9.40;5.80;;;;;;;19.74;62.56;100259.11;106394;1253;72388;-79
2023/08/14 00:26:46;;;;;;;6.80;5.60;;;;;;;19.74;62.64;100260.39;106023;1253;70126;-81
2023/08/14 00:29:14;;;;;;;7.90;5.50;;;;;;;19.73;62.36;100260.48;106377;1254;72707;-80
2023/08/14 00:31:41;;;;;;;9.10;5.70;;;;;;;19.73;62.37;100263.05;106537;1257;60445;-79
2023/08/14 00:34:08;;;;;;;8.10;5.60;;;;;;;19.72;62.36;100262.77;106918;1253;60307;-83
2023/08/14 00:36:36;;;;;;;6.70;5.60;;;;;;;19.73;62.49;100260.90;105844;1253;239191;-82
2023/08/14 00:40:06;;;;;;;7.20;5.90;;;;;;;19.75;62.62;100262.96;103518;1295;600635;-80
2023/08/14 00:42:34;;;;;;;10.30;6.50;;;;;;;19.73;62.70;100265.38;105778;1267;59158;-84
2023/08/14 00:45:02;;;;;;;13.70;6.40;;;;;;;19.72;62.71;100270.32;105967;1258;59242;-79
2023/08/14 00:47:29;;;;;;;8.80;6.20;;;;;;;19.71;62.71;100268.89;107574;1259;70828;-81
2023/08/14 00:49:57;;;;;;;11.90;6.10;;;;;;;19.70;62.63;100268.27;105754;1258;68728;-80
2023/08/14 00:52:26;;;;;;;12.70;6.00;;;;;;;19.70;62.61;100267.94;105542;1266;71170;-81
2023/08/14 00:54:53;;;;;;;7.60;5.60;;;;;;;19.69;62.61;100267.69;105543;1258;324111;-82
2023/08/14 00:57:21;;;;;;;6.90;5.70;;;;;;;19.67;62.67;100265.45;105521;1254;60030;-79
2023/08/14 00:59:48;;;;;;;8.20;5.80;;;;;;;19.65;62.58;100265.35;105856;1261;72256;-81
2023/08/14 01:02:15;;;;;;;7.40;4.50;;;;;;;19.63;62.41;100265.67;106420;1260;68708;-81
2023/08/14 01:04:43;;;;;;;7.10;5.90;;;;;;;19.62;62.33;100265.85;106111;1255;72624;-82
2023/08/14 01:07:11;;;;;;;5.70;5.20;;;;;;;19.60;62.38;100265.65;106286;1263;60229;-82
2023/08/14 01:09:38;;;;;;;6.70;5.00;;;;;;;19.59;62.35;100266.77;106849;1254;60082;-82
2023/08/14 01:12:38;;;;;;;6.40;4.90;;;;;;;19.59;62.22;100265.66;108299;1254;71706;-80
2023/08/14 01:15:12;;;;;;;7.50;4.70;;;;;;;19.59;62.09;100266.41;107700;1260;69414;-80
2023/08/14 01:17:42;;;;;;;7.60;4.90;;;;;;;19.59;61.82;100262.77;105897;1260;72489;-80
2023/08/14 01:20:10;;;;;;;6.60;4.50;;;;;;;19.58;61.72;100263.80;105975;1260;60106;-84
2023/08/14 01:22:38;;;;;;;7.70;5.00;;;;;;;19.58;61.67;100265.45;105970;1260;59750;-83
2023/08/14 01:25:21;;;;;;;6.50;5.10;;;;;;;19.58;61.67;100267.65;106539;1255;72932;-81
2023/08/14 01:27:49;;;;;;;8.00;5.10;;;;;;;19.57;61.61;100263.23;108678;1254;68746;-81
2023/08/14 01:30:17;;;;;;;5.10;4.60;;;;;;;19.58;61.59;100261.35;105750;1258;72728;-78
2023/08/14 01:32:45;;;;;;;6.50;4.60;;;;;;;19.58;61.55;100267.98;105557;1258;59718;-78
2023/08/14 01:35:12;;;;;;;6.50;5.20;;;;;;;19.58;61.66;100268.73;105616;1256;60065;-79
2023/08/14 01:37:52;;;;;;;6.50;5.00;;;;;;;19.57;61.63;100266.88;106427;1261;73130;-79
2023/08/14 01:40:53;;;;;;;7.10;4.40;;;;;;;19.55;61.71;100269.08;106976;1261;69160;-80
2023/08/14 01:43:32;;;;;;;5.40;4.40;;;;;;;19.54;61.66;100267.30;105826;1257;71358;-81
2023/08/14 01:45:59;;;;;;;5.80;4.80;;;;;;;19.52;61.77;100272.02;105711;1255;59993;-81
2023/08/14 01:48:27;;;;;;;7.10;4.40;;;;;;;19.51;61.77;100276.68;105608;1258;59736;-79
2023/08/14 01:50:54;;;;;;;8.80;4.30;;;;;;;19.49;61.69;100277.47;105631;1258;73077;-82
2023/08/14 01:53:23;;;;;;;7.50;4.50;;;;;;;19.48;61.61;100273.77;105569;1260;69178;-84
2023/08/14 01:55:50;;;;;;;7.10;4.30;;;;;;;19.47;61.57;100276.58;105631;1261;71534;-83
2023/08/14 01:58:17;;;;;;;5.00;4.30;;;;;;;19.45;61.53;100273.30;105617;1258;60064;-80
2023/08/14 02:00:45;;;;;;;8.00;4.60;;;;;;;19.44;61.55;100273.23;106266;1257;59544;-84
2023/08/14 02:03:12;;;;;;;7.80;4.50;;;;;;;19.44;61.57;100275.05;107388;1256;71626;-81
2023/08/14 02:05:40;;;;;;;6.30;4.20;;;;;;;19.45;61.47;100277.83;106442;1257;70373;-79
2023/08/14 02:08:08;;;;;;;6.30;4.50;;;;;;;19.48;61.42;100280.96;107114;1257;71393;-82
2023/08/14 02:10:35;;;;;;;7.20;4.60;;;;;;;19.49;61.43;100280.63;107305;1256;60028;-83
2023/08/14 02:13:03;;;;;;;12.00;8.30;;;;;;;19.49;61.36;100286.48;106287;1263;59615;-82
2023/08/14 02:15:30;;;;;;;7.20;5.60;;;;;;;19.49;61.42;100286.30;106266;1257;73058;-84
2023/08/14 02:17:58;;;;;;;5.80;5.00;;;;;;;19.48;61.44;100289.25;106138;1262;68772;-84
2023/08/14 02:20:25;;;;;;;5.50;4.60;;;;;;;19.49;61.66;100293.72;107267;1257;71398;-84
2023/08/14 02:22:53;;;;;;;9.90;4.80;;;;;;;19.48;61.73;100295.23;108676;1256;59978;-83
2023/08/14 02:25:20;;;;;;;6.00;4.40;;;;;;;19.48;61.74;100294.77;108566;1255;59231;-82
2023/08/14 02:27:48;;;;;;;6.70;4.70;;;;;;;19.47;61.74;100299.71;106462;1254;71818;-81
2023/08/14 02:30:15;;;;;;;8.40;4.60;;;;;;;19.47;61.70;100299.38;106051;1255;70127;-80
2023/08/14 02:32:44;;;;;;;8.80;4.90;;;;;;;19.44;61.76;100295.52;105848;1256;72512;-80
2023/08/14 02:35:11;;;;;;;5.00;4.50;;;;;;;19.43;61.76;100293.38;106043;1256;60525;-79
2023/08/14 02:37:38;;;;;;;7.00;4.00;;;;;;;19.41;61.68;100293.27;106687;1254;59640;-79
2023/08/14 02:40:07;;;;;;;6.40;4.80;;;;;;;19.40;61.91;100293.02;106554;1254;72274;-85
2023/08/14 02:42:36;;;;;;;9.90;5.30;;;;;;;19.39;61.99;100295.52;105869;1256;69598;-86
2023/08/14 02:45:03;;;;;;;8.70;4.90;;;;;;;19.37;62.01;100295.64;106455;1253;71085;-83
2023/08/14 02:47:31;;;;;;;8.30;5.30;;;;;;;19.36;62.06;100300.04;108043;1254;59039;-84
2023/08/14 02:50:00;;;;;;;9.00;6.30;;;;;;;19.34;61.98;100298.05;106688;1259;59230;-82
2023/08/14 02:52:27;;;;;;;9.90;5.10;;;;;;;19.34;61.88;100301.49;106070;1254;71972;-80
2023/08/14 02:54:55;;;;;;;10.40;6.00;;;;;;;19.34;61.75;100306.69;105944;1254;68210;-82
2023/08/14 02:57:22;;;;;;;7.70;5.30;;;;;;;19.34;61.75;100309.15;105865;1254;74935;-81
2023/08/14 02:59:50;;;;;;;9.60;5.20;;;;;;;19.35;61.88;100309.27;105980;1267;60127;-82
2023/08/14 03:02:17;;;;;;;8.70;4.90;;;;;;;19.35;61.81;100310.48;105771;1254;59573;-80
2023/08/14 03:04:45;;;;;;;5.80;4.50;;;;;;;19.36;61.88;100308.95;105631;1254;73550;-81
2023/08/14 03:07:12;;;;;;;9.40;5.00;;;;;;;19.35;61.91;100315.48;105785;1254;70201;-78
2023/08/14 03:09:40;;;;;;;6.40;4.50;;;;;;;19.34;62.02;100313.14;105817;1255;71470;-79
2023/08/14 03:12:07;;;;;;;12.40;4.50;;;;;;;19.32;61.87;100313.39;105828;1254;59625;-82
2023/08/14 03:14:35;;;;;;;5.70;4.60;;;;;;;19.33;62.02;100311.85;105904;1260;60005;-81
2023/08/14 03:17:02;;;;;;;6.10;4.60;;;;;;;19.33;62.13;100308.40;106117;1254;73007;-82
2023/08/14 03:19:30;;;;;;;10.60;4.70;;;;;;;19.33;62.31;100315.29;106507;1254;70005;-84
2023/08/14 03:21:57;;;;;;;8.70;4.50;;;;;;;19.33;62.24;100318.52;106744;1254;72201;-85
2023/08/14 03:24:25;;;;;;;7.40;4.40;;;;;;;19.33;62.33;100320.27;107641;1254;60055;-84
2023/08/14 03:26:53;;;;;;;7.50;4.80;;;;;;;19.34;62.31;100319.23;108907;1253;59726;-83
2023/08/14 03:29:21;;;;;;;8.90;4.70;;;;;;;19.36;62.31;100318.19;107659;1259;71584;-83
2023/08/14 03:31:49;;;;;;;5.10;4.60;;;;;;;19.39;62.34;100321.91;109119;1256;68773;-81
2023/08/14 03:34:18;;;;;;;6.70;4.40;;;;;;;19.43;62.34;100322.89;109021;1254;71405;-81
2023/08/14 03:36:47;;;;;;;7.50;4.90;;;;;;;19.47;62.17;100322.72;107650;1254;59679;-80
2023/08/14 03:39:14;;;;;;;6.10;4.70;;;;;;;19.50;62.26;100321.50;106694;1254;59544;-82
2023/08/14 03:41:43;;;;;;;7.80;4.30;;;;;;;19.53;62.15;100323.23;105864;1254;72054;-81
2023/08/14 03:44:11;;;;;;;7.60;4.80;;;;;;;19.56;62.02;100327.53;105771;1260;68661;-81
2023/08/14 03:46:38;;;;;;;5.70;4.60;;;;;;;19.59;61.89;100327.10;105980;1254;71896;-83
2023/08/14 03:49:06;;;;;;;7.60;4.50;;;;;;;19.63;61.86;100327.30;106221;1257;60147;-85
2023/08/14 03:51:33;;;;;;;5.80;4.50;;;;;;;19.67;61.75;100325.98;106110;1257;59650;-85
2023/08/14 03:54:01;;;;;;;6.30;5.30;;;;;;;19.72;61.79;100329.89;106087;1258;73049;-85
2023/08/14 03:56:28;;;;;;;12.00;5.40;;;;;;;19.76;61.89;100331.22;105687;1254;70913;-86
2023/08/14 03:58:56;;;;;;;6.30;4.50;;;;;;;19.81;61.83;100332.90;106192;1256;72768;-83
2023/08/14 04:01:24;;;;;;;5.50;5.00;;;;;;;19.86;61.85;100331.91;105993;1254;60093;-82
2023/08/14 04:03:51;;;;;;;10.10;5.50;;;;;;;19.91;61.78;100328.11;106144;1258;59605;-81
2023/08/14 04:06:19;;;;;;;7.70;5.40;;;;;;;19.96;61.77;100327.17;108488;1253;71777;-83
2023/08/14 04:08:47;;;;;;;6.10;4.60;;;;;;;20.04;61.72;100329.16;107990;1254;69886;-83
2023/08/14 04:11:14;;;;;;;8.80;5.70;;;;;;;20.16;61.62;100330.89;105987;1257;71518;-82
2023/08/14 04:13:41;;;;;;;7.50;5.20;;;;;;;20.29;61.31;100332.25;105646;1258;59669;-81
2023/08/14 04:16:09;;;;;;;7.90;5.10;;;;;;;20.41;61.15;100332.55;105886;1254;59790;-83
2023/08/14 04:18:36;;;;;;;7.60;5.30;;;;;;;20.53;60.95;100334.62;105721;1255;71695;-82
2023/08/14 04:21:04;;;;;;;6.90;5.10;;;;;;;20.62;60.65;100332.34;105790;1254;68441;-82
2023/08/14 04:23:32;;;;;;;6.80;5.80;;;;;;;20.66;60.62;100330.60;105982;1257;70508;-80
2023/08/14 04:25:59;;;;;;;7.60;5.50;;;;;;;20.71;60.51;100332.27;105675;1256;59647;-80
2023/08/14 04:28:27;;;;;;;8.30;5.10;;;;;;;20.78;60.41;100336.73;105904;1259;60069;-79
2023/08/14 04:30:55;;;;;;;10.50;5.70;;;;;;;20.84;60.22;100337.80;105845;1254;73531;-79
2023/08/14 04:33:22;;;;;;;7.30;5.30;;;;;;;20.89;60.04;100340.38;105954;1254;70080;-79
2023/08/14 04:35:50;;;;;;;7.10;4.90;;;;;;;20.94;59.76;100342.16;106440;1254;72460;-78
2023/08/14 04:38:19;;;;;;;5.70;4.90;;;;;;;20.99;59.54;100343.70;106901;1254;60064;-78
2023/08/14 04:40:49;;;;;;;11.70;4.90;;;;;;;21.11;59.46;100345.29;107426;1252;59735;-81
2023/08/14 04:43:17;;;;;;;6.10;5.00;;;;;;;21.20;59.25;100343.16;108433;1253;71476;-81
2023/08/14 04:45:46;;;;;;;7.10;5.00;;;;;;;21.27;59.06;100346.32;108364;1253;68824;-80
2023/08/14 04:48:14;;;;;;;12.20;5.90;;;;;;;21.32;59.00;100346.56;107895;1254;71419;-82
2023/08/14 04:50:42;;;;;;;9.10;5.30;;;;;;;21.37;58.93;100347.64;106413;1261;60562;-83
2023/08/14 04:53:09;;;;;;;9.00;5.40;;;;;;;21.42;58.98;100346.39;106971;1254;60341;-83
2023/08/14 04:55:39;;;;;;;6.10;4.90;;;;;;;21.50;59.05;100350.23;106748;1254;72690;-86
2023/08/14 04:58:06;;;;;;;10.50;5.10;;;;;;;21.62;58.83;100354.38;107373;1253;69133;-82
2023/08/14 05:00:35;;;;;;;15.40;5.20;;;;;;;21.72;58.53;100356.95;108050;1257;71469;-84
2023/08/14 05:03:04;;;;;;;9.00;5.20;;;;;;;21.79;58.52;100355.92;107033;1254;60990;-80
2023/08/14 05:05:33;;;;;;;12.20;5.50;;;;;;;21.86;58.59;100354.13;105945;1259;60357;-76
2023/08/14 05:08:00;;;;;;;7.00;5.40;;;;;;;21.92;58.55;100358.63;105665;1260;73826;-76
2023/08/14 05:10:28;;;;;;;9.60;5.20;;;;;;;22.00;58.45;100361.48;105807;1254;69921;-74
2023/08/14 05:12:56;;;;;;;7.90;5.50;;;;;;;22.09;58.33;100362.48;105814;1254;72634;-75
2023/08/14 05:15:23;;;;;;;9.10;5.20;;;;;;;22.16;58.15;100363.46;107133;1254;60420;-76
2023/08/14 05:17:51;;;;;;;10.70;5.20;;;;;;;22.22;58.05;100361.59;107320;1253;60456;-77
2023/08/14 05:20:18;;;;;;;7.20;4.70;;;;;;;22.27;58.00;100362.67;108074;1253;72394;-82
2023/08/14 05:22:45;;;;;;;7.50;5.00;;;;;;;22.34;58.12;100362.49;107715;1254;68701;-79
2023/08/14 05:25:15;;;;;;;7.80;5.00;;;;;;;22.43;57.88;100361.52;108139;1259;71061;-81
2023/08/14 05:27:42;;;;;;;5.20;4.10;;;;;;;22.52;57.76;100364.18;107848;1254;60565;-79
2023/08/14 05:30:10;;;;;;;6.70;4.70;;;;;;;22.59;57.65;100368.11;106566;1253;61089;-78
2023/08/14 05:32:38;;;;;;;9.30;4.90;;;;;;;22.64;57.27;100367.38;106045;1260;73885;-78
2023/08/14 05:35:06;;;;;;;5.50;3.90;;;;;;;22.70;57.20;100368.45;106293;1254;70851;-80
2023/08/14 05:37:34;;;;;;;4.90;4.20;;;;;;;22.77;56.86;100373.32;105912;1255;72766;-80
2023/08/14 05:40:01;;;;;;;5.60;3.90;;;;;;;22.84;56.59;100371.27;106232;1254;60600;-81
2023/08/14 05:42:28;;;;;;;5.40;4.10;;;;;;;22.91;56.27;100374.57;105864;1253;60482;-79
2023/08/14 05:44:56;;;;;;;6.70;4.20;;;;;;;22.97;55.99;100367.84;105725;1260;73979;-77
2023/08/14 05:47:23;;;;;;;8.20;4.30;;;;;;;23.02;55.96;100369.80;105575;1254;69941;-76
2023/08/14 05:49:51;;;;;;;6.10;4.00;;;;;;;23.07;55.70;100370.05;105896;1258;72055;-78
2023/08/14 05:52:18;;;;;;;6.10;3.80;;;;;;;23.13;55.49;100366.55;106522;1254;59304;-78
2023/08/14 05:54:46;;;;;;;4.70;4.20;;;;;;;23.17;55.36;100369.85;107266;1253;59574;-78
2023/08/14 05:57:13;;;;;;;7.00;3.80;;;;;;;23.22;55.32;100369.64;106941;1253;73106;-78
2023/08/14 05:59:41;;;;;;;8.40;4.50;;;;;;;23.26;55.33;100368.97;105974;1254;70360;-77
2023/08/14 06:02:08;;;;;;;5.20;4.30;;;;;;;23.29;55.15;100367.85;105948;1254;70491;-77
2023/08/14 06:04:37;;;;;;;7.50;4.20;;;;;;;23.33;54.96;100374.71;106011;1254;60427;-77
2023/08/14 06:07:05;;;;;;;9.30;5.20;;;;;;;23.41;54.93;100376.13;107306;1252;59465;-78
2023/08/14 06:09:32;;;;;;;8.80;4.00;;;;;;;23.47;55.05;100378.71;106271;1254;72578;-75
2023/08/14 06:12:00;;;;;;;7.10;4.00;;;;;;;23.55;54.81;100378.99;105899;1256;70128;-77
2023/08/14 06:14:27;;;;;;;9.00;5.00;;;;;;;23.60;54.86;100383.21;105738;1254;72431;-77
2023/08/14 06:16:55;;;;;;;9.30;4.40;;;;;;;23.66;54.55;100380.95;105831;1258;60434;-78
2023/08/14 06:19:22;;;;;;;5.40;4.60;;;;;;;23.72;54.58;100385.52;105615;1254;60459;-76
2023/08/14 06:21:50;;;;;;;5.30;3.70;;;;;;;23.79;54.35;100389.59;105767;1254;72875;-77
2023/08/14 06:24:17;;;;;;;6.90;4.80;;;;;;;23.85;53.98;100389.30;105783;1258;69595;-77
2023/08/14 06:26:44;;;;;;;6.90;4.10;;;;;;;23.90;53.99;100390.74;105683;1258;71341;-77
2023/08/14 06:29:12;;;;;;;12.20;3.80;;;;;;;23.95;53.97;100389.77;105778;1259;60491;-77
2023/08/14 06:31:39;;;;;;;5.40;4.00;;;;;;;24.01;53.69;100391.02;105779;1253;60348;-77
2023/08/14 06:34:07;;;;;;;4.50;3.90;;;;;;;24.06;53.46;100396.39;105861;1253;72627;-76
2023/08/14 06:36:35;;;;;;;5.70;3.70;;;;;;;24.09;53.09;100397.31;106126;1254;70193;-77
2023/08/14 06:39:03;;;;;;;5.80;4.50;;;;;;;24.12;53.11;100403.13;105791;1257;73078;-77
2023/08/14 06:41:30;;;;;;;6.70;3.90;;;;;;;24.16;53.15;100398.31;105746;1259;60434;-76
2023/08/14 06:43:59;;;;;;;5.60;3.80;;;;;;;24.20;52.96;100403.27;105829;1258;60328;-77
2023/08/14 06:46:26;;;;;;;4.20;3.80;;;;;;;24.25;52.71;100406.09;106347;1254;73882;-76
2023/08/14 06:48:54;;;;;;;5.90;3.50;;;;;;;24.30;52.40;100405.38;105946;1254;70912;-78
2023/08/14 06:51:21;;;;;;;7.80;4.30;;;;;;;24.37;52.35;100405.33;105860;1260;72795;-77
2023/08/14 06:53:48;;;;;;;5.20;3.80;;;;;;;24.44;52.16;100411.27;105764;1258;60549;-77
2023/08/14 06:56:16;;;;;;;7.80;4.30;;;;;;;24.49;51.62;100406.09;105827;1254;60543;-76
2023/08/14 06:58:43;;;;;;;5.10;3.40;;;;;;;24.52;51.82;100408.83;106026;1254;72602;-77
2023/08/14 07:01:11;;;;;;;4.70;3.90;;;;;;;24.60;51.62;100408.98;105813;1259;69997;-77
2023/08/14 07:03:38;;;;;;;7.20;4.30;;;;;;;24.67;51.49;100413.02;106237;1257;72507;-76
2023/08/14 07:06:06;;;;;;;6.90;3.70;;;;;;;24.76;51.12;100408.59;106358;1258;60476;-77
2023/08/14 07:08:33;;;;;;;6.10;4.00;;;;;;;24.83;51.05;100408.23;106245;1254;60520;-76
2023/08/14 07:11:01;;;;;;;6.30;3.80;;;;;;;24.89;50.84;100411.28;105851;1254;73882;-77
2023/08/14 07:13:28;;;;;;;7.20;4.20;;;;;;;24.97;50.34;100409.60;105603;1254;70781;-75
2023/08/14 07:15:58;;;;;;;5.80;3.90;;;;;;;25.00;50.49;100412.58;105712;1254;71395;-76
2023/08/14 07:18:25;;;;;;;7.40;3.40;;;;;;;25.06;50.19;100412.35;105678;1257;60549;-76
2023/08/14 07:20:52;;;;;;;5.10;3.70;;;;;;;25.12;49.73;100409.80;105700;1254;60390;-76
2023/08/14 07:23:23;;;;;;;7.30;4.00;;;;;;;25.19;49.81;100413.97;105813;1256;72592;-75
2023/08/14 07:25:50;;;;;;;4.30;3.50;;;;;;;25.24;49.59;100413.36;106138;1259;70557;-76
2023/08/14 07:28:18;;;;;;;5.50;3.20;;;;;;;25.27;49.66;100407.59;106108;1254;72633;-76
2023/08/14 07:30:45;;;;;;;4.60;3.30;;;;;;;25.34;49.60;100410.19;105736;1254;60694;-77
2023/08/14 07:33:15;;;;;;;9.80;3.60;;;;;;;25.42;48.91;100415.52;105731;1259;60402;-76
2023/08/14 07:35:42;;;;;;;3.70;3.10;;;;;;;25.47;48.26;100412.34;105800;1254;71834;-77
2023/08/14 07:38:12;;;;;;;3.90;3.50;;;;;;;25.48;48.28;100409.91;105842;1254;69933;-76
2023/08/14 07:40:39;;;;;;;4.90;3.20;;;;;;;25.53;48.29;100411.98;105907;1254;72678;-77
2023/08/14 07:43:07;;;;;;;6.40;3.20;;;;;;;25.58;47.92;100406.89;105864;1257;60546;-77
2023/08/14 07:45:35;;;;;;;5.20;3.50;;;;;;;25.65;47.97;100411.98;105655;1255;60479;-77
2023/08/14 07:48:03;;;;;;;6.00;3.60;;;;;;;25.73;47.60;100408.50;105784;1257;73836;-77
2023/08/14 07:50:30;;;;;;;4.60;3.30;;;;;;;25.80;47.43;100406.52;105858;1254;70010;-77
2023/08/14 07:52:58;;;;;;;5.90;3.50;;;;;;;25.87;47.48;100407.41;105914;1259;72592;-77
2023/08/14 07:55:25;;;;;;;4.60;3.20;;;;;;;25.95;47.40;100409.83;105888;1254;60531;-77
2023/08/14 07:57:53;;;;;;;3.40;3.10;;;;;;;26.02;47.05;100416.29;105770;1254;60543;-77
2023/08/14 08:00:20;;;;;;;3.60;3.20;;;;;;;26.05;46.47;100407.83;105688;1254;73864;-76
2023/08/14 08:02:48;;;;;;;5.10;3.20;;;;;;;26.07;46.44;100421.52;105736;1259;69576;-78
2023/08/14 08:05:15;;;;;;;6.00;3.20;;;;;;;26.10;46.47;100410.92;106142;1257;71577;-77
2023/08/14 08:07:46;;;;;;;5.10;3.10;;;;;;;26.15;46.72;100414.85;106308;1254;60448;-77
2023/08/14 08:10:14;;;;;;;4.70;3.30;;;;;;;26.21;46.58;100415.80;105761;1254;60011;-77
2023/08/14 08:12:41;;;;;;;5.00;3.20;;;;;;;26.28;46.97;100410.09;106064;1254;73915;-77
2023/08/14 08:15:09;;;;;;;4.30;3.30;;;;;;;26.39;46.46;100415.11;106417;1259;69159;-77
2023/08/14 08:17:37;;;;;;;5.00;3.30;;;;;;;26.48;46.30;100413.39;107397;1257;71865;-78
2023/08/14 08:20:05;;;;;;;5.20;3.30;;;;;;;26.56;46.16;100410.66;106716;1254;60542;-75
2023/08/14 08:22:33;;;;;;;3.70;2.80;;;;;;;26.66;46.23;100408.98;105904;1252;60494;-77
2023/08/14 08:25:00;;;;;;;4.50;3.30;;;;;;;26.79;46.17;100404.77;105870;1254;73849;-77
2023/08/14 08:27:28;;;;;;;5.90;3.40;;;;;;;26.92;45.65;100404.73;105815;1254;69800;-77
2023/08/14 08:29:56;;;;;;;4.60;3.20;;;;;;;27.00;45.49;100401.23;105757;1254;72674;-77
2023/08/14 08:32:23;;;;;;;5.30;3.90;;;;;;;27.12;45.64;100404.00;105768;1254;60502;-77
2023/08/14 08:34:51;;;;;;;6.40;3.00;;;;;;;27.28;45.20;100411.16;105928;1256;60529;-78
2023/08/14 08:37:19;;;;;;;5.20;3.30;;;;;;;27.41;45.00;100407.05;106014;1251;74361;-77
2023/08/14 08:39:46;;;;;;;4.70;3.10;;;;;;;27.57;45.37;100403.14;106046;1256;68868;-77
2023/08/14 08:42:15;;;;;;;6.10;3.10;;;;;;;27.77;44.55;100408.53;106240;1260;73110;-77
2023/08/14 08:44:46;;;;;;;4.50;3.00;;;;;;;27.93;43.96;100411.36;106359;1254;60343;-78
2023/08/14 08:47:15;;;;;;;7.20;3.50;;;;;;;28.04;43.49;100407.25;106885;1254;60460;-76
2023/08/14 08:49:42;;;;;;;5.10;3.40;;;;;;;28.14;43.46;100409.95;106403;1254;72598;-77
2023/08/14 08:52:11;;;;;;;4.20;3.40;;;;;;;28.23;43.24;100409.76;106360;1257;72386;-77
2023/08/14 08:54:38;;;;;;;6.10;3.30;;;;;;;28.34;43.40;100408.97;106290;1253;71533;-77
2023/08/14 08:57:06;;;;;;;3.70;3.30;;;;;;;28.52;43.26;100415.13;108996;1253;59142;-87
2023/08/14 08:59:33;;;;;;;5.80;3.30;;;;;;;28.70;42.18;100416.36;109149;1253;58924;-86
2023/08/14 09:02:01;;;;;;;4.00;2.70;;;;;;;28.79;42.07;100413.53;108746;1253;73045;-87
2023/08/14 09:04:28;;;;;;;4.20;3.10;;;;;;;28.90;41.94;100407.29;108235;1253;69019;-85
2023/08/14 09:07:01;;;;;;;3.70;2.80;;;;;;;29.07;41.80;100401.87;107251;1253;71395;-83
2023/08/14 09:09:28;;;;;;;4.00;3.20;;;;;;;29.33;41.27;100404.52;106894;1253;60362;-86
2023/08/14 09:11:55;;;;;;;4.90;2.90;;;;;;;29.57;40.46;100395.70;106627;1260;60469;-85
2023/08/14 09:14:23;;;;;;;4.50;3.30;;;;;;;29.74;40.37;100392.60;106966;1254;73877;-85
2023/08/14 09:17:00;;;;;;;3.50;3.00;;;;;;;29.94;39.95;100396.13;107377;1253;70954;-88
2023/08/14 09:19:29;;;;;;;3.30;2.90;;;;;;;30.23;39.72;100399.20;108057;1253;72704;-87
2023/08/14 09:21:57;;;;;;;4.10;2.60;;;;;;;30.48;39.07;100395.51;108489;1253;59203;-87
2023/08/14 09:24:25;;;;;;;4.90;3.10;;;;;;;30.88;39.16;100394.09;108751;1253;59361;-86
2023/08/14 09:26:55;;;;;;;4.30;3.50;;;;;;;31.51;38.65;100389.69;109118;1248;74166;31
2023/08/14 09:29:25;;;;;;;4.60;3.20;;;;;;;32.13;38.28;100384.80;109219;1256;69153;-85
2023/08/14 09:32:27;;;;;;;3.90;3.40;;;;;;;32.99;37.96;100381.04;106757;1286;600382;-90
2023/08/14 09:34:58;;;;;;;4.20;3.00;;;;;;;33.94;36.46;100380.67;108165;1267;58984;-89
2023/08/14 09:37:27;;;;;;;6.70;3.40;;;;;;;34.56;34.89;100377.71;107577;1266;58813;-87
2023/08/14 09:40:06;;;;;;;3.50;3.20;;;;;;;34.86;34.31;100377.47;107161;1267;62035;-88
2023/08/14 09:42:34;;;;;;;4.00;3.10;;;;;;;35.23;33.94;100376.46;107117;1268;69702;-87
2023/08/14 09:45:01;;;;;;;5.00;3.10;;;;;;;35.73;33.59;100375.48;108273;1264;175998;-87
2023/08/14 09:47:32;;;;;;;5.10;3.20;;;;;;;36.28;32.90;100373.66;108569;1264;58869;-87
2023/08/14 09:50:00;;;;;;;7.80;3.50;;;;;;;36.63;32.04;100374.61;107295;1264;59227;-85
2023/08/14 09:52:27;;;;;;;4.10;3.00;;;;;;;36.94;32.02;100373.80;107000;1272;62543;-88
2023/08/14 09:54:55;;;;;;;3.80;3.00;;;;;;;37.40;31.72;100374.94;106539;1269;60121;-87
2023/08/14 09:57:26;;;;;;;5.20;3.30;;;;;;;37.95;30.70;100368.27;105956;1274;62819;-86
2023/08/14 09:59:56;;;;;;;5.20;2.80;;;;;;;38.20;30.25;100371.83;105464;1267;59746;-81
2023/08/14 10:02:23;;;;;;;5.20;2.90;;;;;;;38.22;30.19;100368.58;105482;1264;59742;-83
2023/08/14 10:04:52;;;;;;;4.40;3.20;;;;;;;38.38;30.05;100359.55;105599;1264;63111;-83
2023/08/14 10:07:21;;;;;;;3.60;3.20;;;;;;;38.59;29.83;100362.41;108017;1264;64477;-85
2023/08/14 10:09:51;;;;;;;3.50;3.20;;;;;;;38.62;29.92;100359.25;106785;1263;63083;-84
2023/08/14 10:12:22;;;;;;;3.50;3.20;;;;;;;38.74;29.89;100361.50;105846;1264;59658;-84
2023/08/14 10:15:13;;;;;;;;;;;;;;;38.89;29.61;100364.63;105637;1264;59653;-85
2023/08/14 10:17:50;;;;;;;3.20;2.90;;;;;;;38.89;29.36;100366.29;105376;1271;73023;-82
2023/08/14 10:20:18;;;;;;;4.00;3.10;;;;;;;38.76;29.36;100364.35;105427;1267;61545;-83
2023/08/14 10:22:45;;;;;;;3.20;3.00;;;;;;;38.66;29.57;100362.33;105525;1269;73763;-84
2023/08/14 10:25:13;;;;;;;5.10;3.00;;;;;;;38.87;29.29;100366.95;105683;1273;59826;-83
2023/08/14 10:27:41;;;;;;;3.50;3.10;;;;;;;39.14;29.03;100370.96;105635;1265;59733;-82
2023/08/14 10:30:08;;;;;;;4.00;3.10;;;;;;;39.29;28.89;100371.71;105403;1267;66563;-84
2023/08/14 10:32:36;;;;;;;6.70;3.20;;;;;;;39.44;28.53;100371.56;105220;1267;60212;-83
2023/08/14 10:35:04;;;;;;;3.50;2.90;;;;;;;39.55;28.40;100370.34;105522;1267;63804;-82
2023/08/14 10:37:48;;;;;;;8.30;3.10;;;;;;;39.72;28.74;100364.11;105323;1272;59730;-84
2023/08/14 10:40:31;;;;;;;3.40;3.00;;;;;;;40.36;28.37;100359.88;106403;1257;59653;-84
2023/08/14 10:42:58;;;;;;;4.30;3.70;;;;;;;41.04;27.56;100357.15;107442;1257;66539;-81
2023/08/14 10:45:27;;;;;;;6.80;3.30;;;;;;;41.34;26.72;100360.16;107007;1255;60229;-81
2023/08/14 10:47:59;;;;;;;3.90;3.00;;;;;;;41.26;26.68;100355.66;108620;1254;62502;-82
2023/08/14 10:50:30;;;;;;;3.90;3.20;;;;;;;41.06;26.87;100355.33;107798;1255;59625;-82
2023/08/14 10:52:57;;;;;;;6.50;3.50;;;;;;;40.97;26.91;100353.02;107187;1254;59467;-81
2023/08/14 10:55:34;;;;;;;3.70;3.20;;;;;;;40.85;27.05;100356.92;106441;1254;64514;-83
2023/08/14 10:58:31;;;;;;;6.30;3.10;;;;;;;40.77;26.98;100360.72;106165;1261;60321;-80
2023/08/14 11:00:59;;;;;;;3.40;3.20;;;;;;;40.66;26.87;100358.00;106196;1256;62868;-81
2023/08/14 11:03:28;;;;;;;3.70;3.20;;;;;;;40.55;26.86;100354.84;106100;1260;59733;-80
2023/08/14 11:05:55;;;;;;;3.90;3.20;;;;;;;40.60;26.74;100350.27;106033;1254;59829;-81
2023/08/14 11:08:23;;;;;;;3.60;3.20;;;;;;;40.64;26.86;100347.68;106028;1259;64157;-80
2023/08/14 11:10:51;;;;;;;5.50;3.40;;;;;;;40.99;27.14;100344.30;106005;1254;61365;-80
2023/08/14 11:13:18;;;;;;;4.40;3.50;;;;;;;41.55;26.27;100346.14;105792;1254;62424;-86
2023/08/14 11:15:46;;;;;;;6.90;3.40;;;;;;;41.84;26.05;100344.16;106286;1257;59743;-80
2023/08/14 11:18:13;;;;;;;3.50;3.20;;;;;;;42.19;25.63;100338.21;106076;1253;59656;-81
2023/08/14 11:20:42;;;;;;;3.00;2.70;;;;;;;42.45;25.26;100336.34;105991;1254;62813;-81
2023/08/14 11:23:10;;;;;;;4.80;3.00;;;;;;;42.38;25.18;100331.56;105821;1254;60223;-80
2023/08/14 11:25:37;;;;;;;5.20;3.00;;;;;;;42.28;25.47;100327.92;106036;1254;62435;-76